createdAt,value
2022-12-03T00:02:00.378Z,67.72
2022-12-03T00:04:26.958Z,67.15
2022-12-03T00:06:53.737Z,67.17
2022-12-03T00:09:20.835Z,67.57
2022-12-03T00:11:47.376Z,67.09
2022-12-03T00:14:14.194Z,66.89
2022-12-03T00:16:40.801Z,68.10
2022-12-03T00:19:07.828Z,68.11
2022-12-03T00:21:34.716Z,67.61
2022-12-03T00:24:01.470Z,67.60
2022-12-03T00:26:28.041Z,67.10
2022-12-03T00:28:55.223Z,67.06
2022-12-03T00:31:23.428Z,67.07
2022-12-03T00:33:51.344Z,67.46
2022-12-03T00:36:19.132Z,67.67
2022-12-03T00:38:45.881Z,67.32
2022-12-03T00:41:13.085Z,67.29
2022-12-03T00:43:39.606Z,67.27
2022-12-03T00:46:06.312Z,67.70
2022-12-03T00:48:32.918Z,68.05
2022-12-03T00:50:59.549Z,67.65
2022-12-03T00:53:26.062Z,67.47
2022-12-03T00:55:52.676Z,68.07
2022-12-03T00:58:19.314Z,67.44
2022-12-03T01:00:45.831Z,67.30
2022-12-03T01:03:12.447Z,67.10
2022-12-03T01:05:39.316Z,67.75
2022-12-03T01:08:05.999Z,67.30
2022-12-03T01:10:32.530Z,67.14
2022-12-03T01:12:59.068Z,67.67
2022-12-03T01:15:25.590Z,67.33
2022-12-03T01:17:54.164Z,66.41
2022-12-03T01:20:20.762Z,67.60
2022-12-03T01:22:47.290Z,66.37
2022-12-03T01:25:13.890Z,67.65
2022-12-03T01:27:40.468Z,67.04
2022-12-03T01:30:07.810Z,67.08
2022-12-03T01:32:34.327Z,66.99
2022-12-03T01:35:00.974Z,67.50
2022-12-03T01:37:27.644Z,66.64
2022-12-03T01:39:54.762Z,66.56
2022-12-03T01:42:28.000Z,66.79
2022-12-03T01:44:56.738Z,66.54
2022-12-03T01:47:34.132Z,66.87
2022-12-03T01:50:15.642Z,67.06
2022-12-03T01:52:42.543Z,67.15
2022-12-03T01:55:16.446Z,68.05
2022-12-03T01:57:47.956Z,67.37
2022-12-03T02:00:17.018Z,67.01
2022-12-03T02:02:43.692Z,67.04
2022-12-03T02:05:21.563Z,67.28
2022-12-03T02:07:48.412Z,66.78
2022-12-03T02:10:16.386Z,66.66
2022-12-03T02:12:48.562Z,66.78
2022-12-03T02:15:15.238Z,67.19
2022-12-03T02:17:42.095Z,67.10
2022-12-03T02:20:10.330Z,67.03
2022-12-03T02:22:40.244Z,67.34
2022-12-03T02:25:15.916Z,67.49
2022-12-03T02:27:42.903Z,67.14
2022-12-03T02:30:10.149Z,67.35
2022-12-03T02:32:37.504Z,67.74
2022-12-03T02:35:04.726Z,67.63
2022-12-03T02:37:35.738Z,67.74
2022-12-03T02:40:09.754Z,67.24
2022-12-03T02:42:37.178Z,67.18
2022-12-03T02:45:14.167Z,67.14
2022-12-03T02:47:45.501Z,67.89
2022-12-03T02:50:15.586Z,67.40
2022-12-03T02:52:44.005Z,67.83
2022-12-03T02:55:11.018Z,67.48
2022-12-03T02:57:38.411Z,67.75
2022-12-03T03:00:07.880Z,67.38
2022-12-03T03:02:36.557Z,67.70
2022-12-03T03:05:04.270Z,67.23
2022-12-03T03:07:30.935Z,66.73
2022-12-03T03:09:58.463Z,66.89
2022-12-03T03:12:25.085Z,66.88
2022-12-03T03:14:52.670Z,67.34
2022-12-03T03:17:19.501Z,66.62
2022-12-03T03:19:47.100Z,66.98
2022-12-03T03:22:13.790Z,67.36
2022-12-03T03:24:40.420Z,67.28
2022-12-03T03:27:07.108Z,67.46
2022-12-03T03:29:33.976Z,68.25
2022-12-03T03:32:01.753Z,68.20
2022-12-03T03:34:29.754Z,67.29
2022-12-03T03:36:56.366Z,67.22
2022-12-03T03:39:22.916Z,67.20
2022-12-03T03:41:49.494Z,67.05
2022-12-03T03:44:16.083Z,67.16
2022-12-03T03:46:42.973Z,67.23
2022-12-03T03:49:10.464Z,67.15
2022-12-03T03:51:37.537Z,66.54
2022-12-03T03:54:05.548Z,66.04
2022-12-03T03:56:32.921Z,67.36
2022-12-03T03:58:59.738Z,67.42
2022-12-03T04:01:27.168Z,66.77
2022-12-03T04:03:55.143Z,66.89
2022-12-03T04:06:21.726Z,66.52
2022-12-03T04:08:48.272Z,66.62
2022-12-03T04:11:33.477Z,66.35
2022-12-03T04:13:59.972Z,66.83
2022-12-03T04:16:26.616Z,66.65
2022-12-03T04:18:53.221Z,66.16
2022-12-03T04:21:40.463Z,65.50
2022-12-03T04:24:08.705Z,65.40
2022-12-03T04:26:53.930Z,65.25
2022-12-03T04:29:20.682Z,65.85
2022-12-03T04:32:05.877Z,66.19
2022-12-03T04:34:51.502Z,66.07
2022-12-03T04:37:18.362Z,66.00
2022-12-03T04:39:44.963Z,65.90
2022-12-03T04:42:11.619Z,65.88
2022-12-03T04:44:38.200Z,65.51
2022-12-03T04:47:13.333Z,66.33
2022-12-03T04:49:42.315Z,66.99
2022-12-03T04:52:10.126Z,66.58
2022-12-03T04:54:37.237Z,65.92
2022-12-03T04:57:05.001Z,66.29
2022-12-03T04:59:32.013Z,66.14
2022-12-03T05:01:59.164Z,67.14
2022-12-03T05:04:26.778Z,66.92
2022-12-03T05:06:53.299Z,66.83
2022-12-03T05:09:19.859Z,66.40
2022-12-03T05:11:46.383Z,66.26
2022-12-03T05:14:12.915Z,66.23
2022-12-03T05:16:39.835Z,66.62
2022-12-03T05:19:07.890Z,66.16
2022-12-03T05:21:34.710Z,66.19
2022-12-03T05:24:01.455Z,66.16
2022-12-03T05:26:28.224Z,66.84
2022-12-03T05:28:54.975Z,66.28
2022-12-03T05:31:21.642Z,66.97
2022-12-03T05:33:48.236Z,67.17
2022-12-03T05:36:15.156Z,67.27
2022-12-03T05:38:41.652Z,67.18
2022-12-03T05:41:28.133Z,66.65
2022-12-03T05:43:54.708Z,65.82
2022-12-03T05:46:21.312Z,66.27
2022-12-03T05:48:47.944Z,66.62
2022-12-03T05:51:14.752Z,66.85
2022-12-03T05:53:41.380Z,67.06
2022-12-03T05:56:08.031Z,66.23
2022-12-03T05:58:34.740Z,66.11
2022-12-03T06:01:01.299Z,66.23
2022-12-03T06:03:28.169Z,66.07
2022-12-03T06:05:55.051Z,66.91
2022-12-03T06:08:21.784Z,67.05
2022-12-03T06:10:48.327Z,66.48
2022-12-03T06:13:15.135Z,66.24
2022-12-03T06:15:44.036Z,66.52
2022-12-03T06:18:11.235Z,66.22
2022-12-03T06:20:37.841Z,66.94
2022-12-03T06:23:06.239Z,66.79
2022-12-03T06:25:33.408Z,66.66
2022-12-03T06:27:59.980Z,66.44
2022-12-03T06:30:26.479Z,66.24
2022-12-03T06:32:53.088Z,66.72
2022-12-03T06:35:19.673Z,66.53
2022-12-03T06:37:48.824Z,66.39
2022-12-03T06:40:16.726Z,66.51
2022-12-03T06:42:43.592Z,66.82
2022-12-03T06:45:10.439Z,66.33
2022-12-03T06:47:37.134Z,66.44
2022-12-03T06:50:05.398Z,66.72
2022-12-03T06:52:31.811Z,67.08
2022-12-03T06:54:58.354Z,66.46
2022-12-03T06:57:24.932Z,67.21
2022-12-03T06:59:51.730Z,66.87
2022-12-03T07:02:18.666Z,66.26
2022-12-03T07:04:46.533Z,66.57
2022-12-03T07:07:13.579Z,67.04
2022-12-03T07:09:40.556Z,66.89
2022-12-03T07:12:07.532Z,66.69
2022-12-03T07:14:34.098Z,66.98
2022-12-03T07:17:00.600Z,66.63
2022-12-03T07:19:32.290Z,66.74
2022-12-03T07:21:59.223Z,66.02
2022-12-03T07:24:25.795Z,65.92
2022-12-03T07:26:52.404Z,66.08
2022-12-03T07:29:19.015Z,66.72
2022-12-03T07:31:45.808Z,66.25
2022-12-03T07:34:12.455Z,66.54
2022-12-03T07:36:39.479Z,66.64
2022-12-03T07:39:06.009Z,66.46
2022-12-03T07:41:32.578Z,66.43
2022-12-03T07:43:59.205Z,66.57
2022-12-03T07:46:25.825Z,65.33
2022-12-03T07:48:52.484Z,65.93
2022-12-03T07:51:19.082Z,66.05
2022-12-03T07:53:45.687Z,65.97
2022-12-03T07:56:12.348Z,65.97
2022-12-03T07:58:38.942Z,65.87
2022-12-03T08:01:05.773Z,65.73
2022-12-03T08:03:32.403Z,66.40
2022-12-03T08:05:59.006Z,66.01
2022-12-03T08:08:25.630Z,66.35
2022-12-03T08:10:52.267Z,65.88
2022-12-03T08:13:19.232Z,66.33
2022-12-03T08:15:46.078Z,65.52
2022-12-03T08:18:22.052Z,66.49
2022-12-03T08:20:51.702Z,65.45
2022-12-03T08:23:19.227Z,66.60
2022-12-03T08:25:46.445Z,66.13
2022-12-03T08:28:21.883Z,65.88
2022-12-03T08:31:02.018Z,66.11
2022-12-03T08:33:30.987Z,65.44
2022-12-03T08:35:57.494Z,65.61
2022-12-03T08:38:25.238Z,65.98
2022-12-03T08:40:52.810Z,66.25
2022-12-03T08:43:32.670Z,65.94
2022-12-03T08:45:59.530Z,65.48
2022-12-03T08:48:44.026Z,65.57
2022-12-03T08:51:26.684Z,65.29
2022-12-03T08:54:03.519Z,65.87
2022-12-03T08:56:31.171Z,66.24
2022-12-03T08:58:59.563Z,66.21
2022-12-03T09:01:43.806Z,65.25
2022-12-03T09:04:41.497Z,65.84
2022-12-03T09:07:08.339Z,66.11
2022-12-03T09:09:35.016Z,66.00
2022-12-03T09:12:02.322Z,67.05
2022-12-03T09:14:28.966Z,66.00
2022-12-03T09:16:56.416Z,66.22
2022-12-03T09:19:29.996Z,66.18
2022-12-03T09:21:56.882Z,65.65
2022-12-03T09:24:23.555Z,65.61
2022-12-03T09:26:50.164Z,66.02
2022-12-03T09:29:17.226Z,66.15
2022-12-03T09:31:44.285Z,65.49
2022-12-03T09:34:11.206Z,66.46
2022-12-03T09:36:37.842Z,65.31
2022-12-03T09:39:04.689Z,65.76
2022-12-03T09:41:31.443Z,65.20
2022-12-03T09:44:05.895Z,64.92
2022-12-03T09:46:36.544Z,64.86
2022-12-03T09:49:04.658Z,64.52
2022-12-03T09:51:36.241Z,64.32
2022-12-03T09:54:05.812Z,63.33
2022-12-03T09:56:42.055Z,64.14
2022-12-03T09:59:14.424Z,63.94
2022-12-03T10:01:41.609Z,64.10
2022-12-03T10:04:11.846Z,63.30
2022-12-03T10:06:45.857Z,62.90
2022-12-03T10:09:17.251Z,64.43
2022-12-03T10:11:44.156Z,63.09
2022-12-03T10:14:12.462Z,62.36
2022-12-03T10:16:40.556Z,62.22
2022-12-03T10:19:18.789Z,63.63
2022-12-03T10:21:48.688Z,63.32
2022-12-03T10:24:19.865Z,63.72
2022-12-03T10:26:47.740Z,62.91
2022-12-03T10:29:34.265Z,62.71
2022-12-03T10:32:06.098Z,62.80
2022-12-03T10:34:34.985Z,63.66
2022-12-03T10:37:21.105Z,63.76
2022-12-03T10:40:11.005Z,64.32
2022-12-03T10:42:39.599Z,65.12
2022-12-03T10:45:22.560Z,65.64
2022-12-03T10:48:13.642Z,64.66
2022-12-03T10:50:54.641Z,65.16
2022-12-03T10:53:28.849Z,63.97
2022-12-03T10:55:59.398Z,64.59
2022-12-03T10:58:28.832Z,64.05
2022-12-03T11:00:57.763Z,64.17
2022-12-03T11:03:25.462Z,63.18
2022-12-03T11:05:52.849Z,63.66
2022-12-03T11:08:22.649Z,63.73
2022-12-03T11:11:24.043Z,64.37
2022-12-03T11:13:52.855Z,63.27
2022-12-03T11:16:41.363Z,63.74
2022-12-03T11:19:43.916Z,63.51
2022-12-03T11:22:10.638Z,63.75
2022-12-03T11:24:40.809Z,63.99
2022-12-03T11:27:16.734Z,63.48
2022-12-03T11:29:47.969Z,63.54
2022-12-03T11:32:39.578Z,64.07
2022-12-03T11:35:13.862Z,64.04
2022-12-03T11:37:40.516Z,63.18
2022-12-03T11:40:28.527Z,63.29
2022-12-03T11:42:55.125Z,62.82
2022-12-03T11:45:28.969Z,63.73
2022-12-03T11:47:58.510Z,62.78
2022-12-03T11:50:33.640Z,63.56
2022-12-03T11:53:15.936Z,63.40
2022-12-03T11:55:48.383Z,63.65
2022-12-03T11:58:30.289Z,63.62
2022-12-03T12:00:58.666Z,63.74
2022-12-03T12:03:26.967Z,62.88
2022-12-03T12:06:08.251Z,62.69
2022-12-03T12:08:36.615Z,63.46
2022-12-03T12:11:04.052Z,63.92
2022-12-03T12:13:30.459Z,63.16
2022-12-03T12:15:58.685Z,63.96
2022-12-03T12:18:41.550Z,63.55
2022-12-03T12:21:43.429Z,64.27
2022-12-03T12:24:32.951Z,64.34
2022-12-03T12:27:02.131Z,64.03
2022-12-03T12:29:28.749Z,64.06
2022-12-03T12:32:15.205Z,63.55
2022-12-03T12:34:47.793Z,63.66
2022-12-03T12:37:20.218Z,63.87
2022-12-03T12:39:46.852Z,63.29
2022-12-03T12:42:31.696Z,63.20
2022-12-03T12:45:01.068Z,63.20
2022-12-03T12:47:29.824Z,63.42
2022-12-03T12:49:56.998Z,62.94
2022-12-03T12:52:23.921Z,62.69
2022-12-03T12:54:50.788Z,62.92
2022-12-03T12:57:21.875Z,63.17
2022-12-03T12:59:48.894Z,63.19
2022-12-03T13:02:27.239Z,63.97
2022-12-03T13:04:53.889Z,63.70
2022-12-03T13:07:20.514Z,63.19
2022-12-03T13:09:48.950Z,64.39
2022-12-03T13:12:22.285Z,64.14
2022-12-03T13:14:49.210Z,64.29
2022-12-03T13:17:19.627Z,64.24
2022-12-03T13:19:49.406Z,63.41
2022-12-03T13:22:20.377Z,63.05
2022-12-03T13:24:47.719Z,63.45
2022-12-03T13:27:17.319Z,63.32
2022-12-03T13:29:56.787Z,62.99
2022-12-03T13:32:30.831Z,64.02
2022-12-03T13:35:12.111Z,64.66
2022-12-03T13:37:38.764Z,63.51
2022-12-03T13:40:24.794Z,63.48
2022-12-03T13:42:52.540Z,62.56
2022-12-03T13:45:19.404Z,63.09
2022-12-03T13:47:53.549Z,62.81
2022-12-03T13:50:40.988Z,63.90
2022-12-03T13:53:19.397Z,64.69
2022-12-03T13:55:48.265Z,64.11
2022-12-03T13:58:14.871Z,63.71
2022-12-03T14:00:41.721Z,64.01
2022-12-03T14:03:08.738Z,64.50
2022-12-03T14:05:35.364Z,62.71
2022-12-03T14:08:02.474Z,63.49
2022-12-03T14:10:29.480Z,63.93
2022-12-03T14:12:56.658Z,63.82
2022-12-03T14:15:23.440Z,62.95
2022-12-03T14:17:50.011Z,63.91
2022-12-03T14:20:17.282Z,64.17
2022-12-03T14:22:43.808Z,63.34
2022-12-03T14:25:10.817Z,63.12
2022-12-03T14:27:37.431Z,63.33
2022-12-03T14:30:04.759Z,63.14
2022-12-03T14:32:31.272Z,63.80
2022-12-03T14:34:57.838Z,64.83
2022-12-03T14:37:24.471Z,64.14
2022-12-03T14:39:51.050Z,63.84
2022-12-03T14:42:18.242Z,63.60
2022-12-03T14:44:46.675Z,64.05
2022-12-03T14:47:13.892Z,64.19
2022-12-03T14:49:40.816Z,63.58
2022-12-03T14:52:12.131Z,64.31
2022-12-03T14:54:41.984Z,63.95
2022-12-03T14:57:08.872Z,64.46
2022-12-03T14:59:35.511Z,64.97
2022-12-03T15:02:02.230Z,64.55
2022-12-03T15:04:28.893Z,64.27
2022-12-03T15:06:55.477Z,64.86
2022-12-03T15:09:22.308Z,64.33
2022-12-03T15:11:48.857Z,65.05
2022-12-03T15:14:15.484Z,64.56
2022-12-03T15:16:42.113Z,65.51
2022-12-03T15:19:09.082Z,63.85
2022-12-03T15:21:35.847Z,64.34
2022-12-03T15:24:03.157Z,64.49
2022-12-03T15:26:30.282Z,64.40
2022-12-03T15:28:57.034Z,64.03
2022-12-03T15:31:23.736Z,64.82
2022-12-03T15:33:50.704Z,64.25
2022-12-03T15:36:17.684Z,64.48
2022-12-03T15:38:44.294Z,64.14
2022-12-03T15:41:32.822Z,64.35
2022-12-03T15:44:03.908Z,64.75
2022-12-03T15:46:31.504Z,64.15
2022-12-03T15:48:58.372Z,64.78
2022-12-03T15:51:25.342Z,64.48
2022-12-03T15:53:51.955Z,64.37
2022-12-03T15:56:18.501Z,63.71
2022-12-03T15:58:45.143Z,63.33
2022-12-03T16:01:13.630Z,63.44
2022-12-03T16:03:41.254Z,64.09
2022-12-03T16:06:08.754Z,65.20
2022-12-03T16:08:35.264Z,65.54
2022-12-03T16:11:01.729Z,64.70
2022-12-03T16:13:28.379Z,64.27
2022-12-03T16:15:55.042Z,64.58
2022-12-03T16:18:21.663Z,64.66
2022-12-03T16:20:48.263Z,64.29
2022-12-03T16:23:14.877Z,64.39
2022-12-03T16:25:41.584Z,64.38
2022-12-03T16:28:08.208Z,65.02
2022-12-03T16:30:35.746Z,64.88
2022-12-03T16:33:02.398Z,64.27
2022-12-03T16:35:28.963Z,64.16
2022-12-03T16:37:55.633Z,64.13
2022-12-03T16:40:22.646Z,63.80
2022-12-03T16:42:49.210Z,63.80
2022-12-03T16:45:21.766Z,63.90
2022-12-03T16:47:49.387Z,64.16
2022-12-03T16:50:21.911Z,64.13
2022-12-03T16:52:54.155Z,64.57
2022-12-03T16:55:20.778Z,64.54
2022-12-03T16:57:47.396Z,64.08
2022-12-03T17:00:14.582Z,65.12
2022-12-03T17:02:41.266Z,64.08
2022-12-03T17:05:08.167Z,64.60
2022-12-03T17:07:34.854Z,64.57
2022-12-03T17:10:01.464Z,64.56
2022-12-03T17:12:42.214Z,64.05
2022-12-03T17:15:14.670Z,63.55
2022-12-03T17:17:41.200Z,64.32
2022-12-03T17:20:08.695Z,64.73
2022-12-03T17:22:35.412Z,63.92
2022-12-03T17:25:02.053Z,64.86
2022-12-03T17:27:29.479Z,64.49
2022-12-03T17:29:56.313Z,64.45
2022-12-03T17:32:22.975Z,64.33
2022-12-03T17:34:49.524Z,63.72
2022-12-03T17:37:16.076Z,64.67
2022-12-03T17:39:42.721Z,64.15
2022-12-03T17:42:09.416Z,63.80
2022-12-03T17:44:35.977Z,63.47
2022-12-03T17:47:02.558Z,63.79
2022-12-03T17:49:31.698Z,64.16
2022-12-03T17:51:58.421Z,63.71
2022-12-03T17:54:37.989Z,65.27
2022-12-03T17:57:11.566Z,65.29
2022-12-03T17:59:38.161Z,63.90
2022-12-03T18:02:04.824Z,64.81
2022-12-03T18:04:31.455Z,65.78
2022-12-03T18:07:02.207Z,65.18
2022-12-03T18:09:29.203Z,65.12
2022-12-03T18:11:55.943Z,65.48
2022-12-03T18:14:22.467Z,64.87
2022-12-03T18:16:49.032Z,65.13
2022-12-03T18:19:15.713Z,64.89
2022-12-03T18:21:42.844Z,64.54
2022-12-03T18:24:09.617Z,64.55
2022-12-03T18:26:36.420Z,64.40
2022-12-03T18:29:03.371Z,64.87
2022-12-03T18:31:30.241Z,64.82
2022-12-03T18:33:56.965Z,64.85
2022-12-03T18:36:25.572Z,65.06
2022-12-03T18:38:55.178Z,64.78
2022-12-03T18:41:25.053Z,64.92
2022-12-03T18:43:51.657Z,65.05
2022-12-03T18:46:45.028Z,64.68
2022-12-03T18:49:07.241Z,66.29
2022-12-03T18:51:33.993Z,65.37
2022-12-03T18:54:00.599Z,65.56
2022-12-03T18:56:27.285Z,65.69
2022-12-03T18:58:53.933Z,67.04
2022-12-03T19:01:22.466Z,66.89
2022-12-03T19:03:49.912Z,66.74
2022-12-03T19:06:20.876Z,65.69
2022-12-03T19:08:54.069Z,66.51
2022-12-03T19:11:21.749Z,65.47
2022-12-03T19:13:48.677Z,65.08
2022-12-03T19:16:17.026Z,65.86
2022-12-03T19:18:44.370Z,65.31
2022-12-03T19:21:13.757Z,66.01
2022-12-03T19:23:40.690Z,66.01
2022-12-03T19:26:08.681Z,64.78
2022-12-03T19:28:35.877Z,64.71
2022-12-03T19:31:05.470Z,65.67
2022-12-03T19:33:32.977Z,65.15
2022-12-03T19:36:00.402Z,64.82
2022-12-03T19:38:28.493Z,64.94
2022-12-03T19:41:05.368Z,64.80
2022-12-03T19:43:32.901Z,64.63
2022-12-03T19:46:12.497Z,65.04
2022-12-03T19:48:40.428Z,64.38
2022-12-03T19:51:33.049Z,64.15
2022-12-03T19:53:56.025Z,65.63
2022-12-03T19:56:23.697Z,66.21
2022-12-03T19:58:54.191Z,65.06
2022-12-03T20:01:24.321Z,65.60
2022-12-03T20:03:53.185Z,65.79
2022-12-03T20:06:23.212Z,65.38
2022-12-03T20:08:50.468Z,64.76
2022-12-03T20:11:21.831Z,64.28
2022-12-03T20:13:53.710Z,65.06
2022-12-03T20:16:21.207Z,64.90
2022-12-03T20:18:49.331Z,64.60
2022-12-03T20:21:17.777Z,64.67
2022-12-03T20:23:46.778Z,66.04
2022-12-03T20:26:18.595Z,65.88
2022-12-03T20:28:46.314Z,65.81
2022-12-03T20:31:15.885Z,66.03
2022-12-03T20:33:48.075Z,65.54
2022-12-03T20:36:16.799Z,65.66
2022-12-03T20:38:46.250Z,65.70
2022-12-03T20:41:20.276Z,65.21
2022-12-03T20:43:47.599Z,65.41
2022-12-03T20:46:26.069Z,65.62
2022-12-03T20:48:56.561Z,64.33
2022-12-03T20:51:26.853Z,63.97
2022-12-03T20:53:54.087Z,64.92
2022-12-03T20:56:24.180Z,64.35
2022-12-03T20:58:51.113Z,64.88
2022-12-03T21:01:26.321Z,65.37
2022-12-03T21:03:54.904Z,65.43
2022-12-03T21:06:22.818Z,65.38
2022-12-03T21:08:49.406Z,64.97
2022-12-03T21:11:18.405Z,65.11
2022-12-03T21:13:45.515Z,64.71
2022-12-03T21:16:14.507Z,64.10
2022-12-03T21:18:42.615Z,64.12
2022-12-03T21:21:11.660Z,63.97
2022-12-03T21:23:38.377Z,64.30
2022-12-03T21:26:07.183Z,63.79
2022-12-03T21:28:33.904Z,64.91
2022-12-03T21:31:06.019Z,64.31
2022-12-03T21:33:33.189Z,64.06
2022-12-03T21:36:00.378Z,64.26
2022-12-03T21:38:28.773Z,63.43
2022-12-03T21:40:56.085Z,63.65
2022-12-03T21:43:22.855Z,63.74
2022-12-03T21:45:49.986Z,63.79
2022-12-03T21:48:17.190Z,64.01
2022-12-03T21:50:44.095Z,64.14
2022-12-03T21:53:10.675Z,64.18
2022-12-03T21:55:41.044Z,63.68
2022-12-03T21:58:08.915Z,63.88
2022-12-03T22:00:35.935Z,63.85
2022-12-03T22:03:02.731Z,63.38
2022-12-03T22:05:29.366Z,63.35
2022-12-03T22:07:55.955Z,64.13
2022-12-03T22:10:22.592Z,64.47
2022-12-03T22:12:49.096Z,64.09
2022-12-03T22:15:19.133Z,64.13
2022-12-03T22:17:47.624Z,64.07
2022-12-03T22:20:14.758Z,64.70
2022-12-03T22:22:41.277Z,64.90
2022-12-03T22:25:08.261Z,64.35
2022-12-03T22:27:34.858Z,63.86
2022-12-03T22:30:01.708Z,63.51
2022-12-03T22:32:28.601Z,63.43
2022-12-03T22:34:55.231Z,62.96
2022-12-03T22:37:21.791Z,62.88
2022-12-03T22:39:48.415Z,63.60
2022-12-03T22:42:15.148Z,64.78
2022-12-03T22:44:42.177Z,64.27
2022-12-03T22:47:08.782Z,64.36
2022-12-03T22:49:35.419Z,64.03
2022-12-03T22:52:01.965Z,64.88
2022-12-03T22:54:28.548Z,64.14
2022-12-03T22:56:55.647Z,64.39
2022-12-03T22:59:22.269Z,64.06
2022-12-03T23:01:48.868Z,63.94
2022-12-03T23:04:15.518Z,64.18
2022-12-03T23:06:43.485Z,64.50
2022-12-03T23:09:10.122Z,64.38
2022-12-03T23:11:37.035Z,64.49
2022-12-03T23:14:03.671Z,63.91
2022-12-03T23:16:31.820Z,64.37
2022-12-03T23:18:59.898Z,64.06
2022-12-03T23:21:30.252Z,63.35
2022-12-03T23:23:58.791Z,64.09
2022-12-03T23:26:26.471Z,63.17
2022-12-03T23:28:53.446Z,65.18
2022-12-03T23:31:26.208Z,64.18
2022-12-03T23:33:53.695Z,64.52
2022-12-03T23:36:21.308Z,63.84
2022-12-03T23:38:47.923Z,64.02
2022-12-03T23:41:16.882Z,63.18
2022-12-03T23:43:43.531Z,63.78
2022-12-03T23:46:12.658Z,63.35
2022-12-03T23:48:39.594Z,63.46
2022-12-03T23:51:11.034Z,63.88
2022-12-03T23:53:38.419Z,63.10
2022-12-03T23:56:06.831Z,63.49
2022-12-03T23:58:33.942Z,63.10
